Airfield :







YOU CAN JOIN US ON...

 
LOGIN :

Register | Disclaimer

   EN    FR    IT 

 









Legend :    VFR   Marginal VFR   IFR   Intensive IFR   Very Intensive IFR
Visi :
Ceiling :
>= 8 km
>= 3000ft
5 to 8 km
1000 to 3000 ft
1500m to 5 km
500 to 1000 ft
800 to 1500m
200 to 500 ft
< 800m
< 200 ft
Symbols :   Thunderstorms  Fog  Heavy snow  Heavy precipitations  Wind > 20 kt






- Airport Elevation : 271 ft


KBAF - Barnes Municipal

CURRENT METAR :
  • 050653Z AUTO 00000KT 10SM CLR M03/M04 A3020 RMK AO2 SLP234 T10281044

EXPIRED METARs :
  • 050553Z AUTO 00000KT 10SM CLR M03/M04 A3017 RMK AO2 SLP222 T10331039 10039 21033 51018
  • 050453Z AUTO 00000KT 10SM CLR M02/M04 A3016 RMK AO2 SLP219 T10221044 400391050

TAF KBAF
Valid from the 05 at 06:00 until the 06 at 06:00 UTC


050536Z 0506/0606 00000KT P6SM BKN200
FM051400 25003KT P6SM BKN200
FM051900 21003KT P6SM BKN150
FM060100 13003KT P6SM BKN250
KZBW FIR / North America



MET'MAP, your aeronautical weather chart ! - Copyright ORBIFLY December 2007 - Disclaimer

ORBIFLY MET'MAP TEAM :

Programming & Development : Alexandra Zaïnal
Concept & original design : Baudouin d'Aumeries
Assistance for programming : Marc-Olivier Méhu
Technical & hardware support : Manuel Goepfert

Contact : metmap@orbifly.com




SOURCES & CREDITS :

   NOAA